Time,TemperatureF,DewpointF,PressureIn,WindDirection,WindDirectionDegrees,WindSpeedMPH,WindSpeedGustMPH,Humidity,HourlyPrecipIn,Conditions,Clouds,dailyrainin,SolarRadiationWatts/m^2,SoftwareType,DateUTC
2013-05-26 00:03:00,56.0,42.0,-100.00,WSW,238,1.0,3.0,60,0.00,,,0.00,0.000000,,2013-05-26 04:03:00,
2013-05-26 00:13:00,56.0,42.0,-100.00,WSW,238,1.0,3.0,60,0.00,,,0.00,0.000000,,2013-05-26 04:13:00,
2013-05-26 00:23:00,56.0,42.0,-100.00,WSW,238,1.0,3.0,60,0.00,,,0.00,0.000000,,2013-05-26 04:23:00,
2013-05-26 00:52:00,56.0,43.0,-100.00,WSW,238,2.0,4.0,62,0.00,,,0.00,0.000000,,2013-05-26 04:52:00,
2013-05-26 01:02:00,56.0,43.0,-100.00,WSW,238,2.0,4.0,62,0.00,,,0.00,0.000000,,2013-05-26 05:02:00,
2013-05-26 01:12:00,56.0,43.0,-100.00,WSW,238,2.0,4.0,62,0.00,,,0.00,0.000000,,2013-05-26 05:12:00,
2013-05-26 01:22:00,56.0,43.0,-100.00,WSW,238,2.0,4.0,62,0.00,,,0.00,0.000000,,2013-05-26 05:22:00,
2013-05-26 01:52:00,57.0,44.0,-100.00,WSW,245,2.0,4.0,61,0.00,,,0.00,0.000000,,2013-05-26 05:52:00,
2013-05-26 02:01:00,57.0,44.0,-100.00,WSW,245,2.0,4.0,61,0.00,,,0.00,0.000000,,2013-05-26 06:01:00,
2013-05-26 02:12:00,57.0,44.0,-100.00,WSW,245,2.0,4.0,61,0.00,,,0.00,0.000000,,2013-05-26 06:12:00,
2013-05-26 02:22:00,57.0,44.0,-100.00,WSW,245,2.0,4.0,61,0.00,,,0.00,0.000000,,2013-05-26 06:22:00,
2013-05-26 02:52:00,60.0,46.0,-100.00,WSW,247,2.0,4.0,60,0.00,,,0.00,0.000000,,2013-05-26 06:52:00,
2013-05-26 03:02:00,60.0,46.0,-100.00,WSW,247,2.0,4.0,60,0.00,,,0.00,0.000000,,2013-05-26 07:02:00,
2013-05-26 03:11:00,60.0,46.0,-100.00,WSW,247,2.0,4.0,60,0.00,,,0.00,0.000000,,2013-05-26 07:11:00,
2013-05-26 03:22:00,60.0,46.0,-100.00,WSW,247,2.0,4.0,60,0.00,,,0.00,0.000000,,2013-05-26 07:22:00,
2013-05-26 03:52:00,57.0,45.0,-100.00,West,276,2.0,4.0,64,0.00,,,0.00,0.000000,,2013-05-26 07:52:00,
2013-05-26 04:02:00,57.0,45.0,-100.00,West,276,2.0,4.0,64,0.00,,,0.00,0.000000,,2013-05-26 08:02:00,
2013-05-26 04:12:00,57.0,45.0,-100.00,West,276,2.0,4.0,64,0.00,,,0.00,0.000000,,2013-05-26 08:12:00,
2013-05-26 04:21:00,57.0,45.0,-100.00,West,276,2.0,4.0,64,0.00,,,0.00,0.000000,,2013-05-26 08:21:00,
2013-05-26 04:53:00,55.0,45.0,-100.00,West,280,2.0,3.0,68,0.00,,,0.00,0.000000,,2013-05-26 08:53:00,
2013-05-26 05:01:00,55.0,45.0,-100.00,West,280,2.0,3.0,68,0.00,,,0.00,0.000000,,2013-05-26 09:01:00,
2013-05-26 05:11:00,55.0,45.0,-100.00,West,280,2.0,3.0,68,0.00,,,0.00,0.000000,,2013-05-26 09:11:00,
2013-05-26 05:21:00,55.0,45.0,-100.00,West,280,2.0,3.0,68,0.00,,,0.00,0.000000,,2013-05-26 09:21:00,
2013-05-26 05:53:00,54.0,44.0,-100.00,West,263,2.0,4.0,69,0.00,,,0.00,0.000000,,2013-05-26 09:53:00,
2013-05-26 06:03:00,54.0,44.0,-100.00,West,263,2.0,4.0,69,0.00,,,0.00,0.000000,,2013-05-26 10:03:00,
2013-05-26 06:12:00,54.0,44.0,-100.00,West,263,2.0,4.0,69,0.00,,,0.00,0.000000,,2013-05-26 10:12:00,
2013-05-26 06:23:00,54.0,44.0,-100.00,West,263,2.0,4.0,69,0.00,,,0.00,0.000000,,2013-05-26 10:23:00,
2013-05-26 06:52:00,55.0,45.0,-100.00,West,261,2.0,4.0,70,0.00,,,0.00,10.000000,,2013-05-26 10:52:00,
2013-05-26 07:03:00,55.0,45.0,-100.00,West,261,2.0,4.0,70,0.00,,,0.00,10.000000,,2013-05-26 11:03:00,
2013-05-26 07:12:00,55.0,45.0,-100.00,West,261,2.0,4.0,70,0.00,,,0.00,10.000000,,2013-05-26 11:12:00,
2013-05-26 07:22:00,55.0,45.0,-100.00,West,261,2.0,4.0,70,0.00,,,0.00,10.000000,,2013-05-26 11:22:00,
2013-05-26 07:52:00,64.0,51.0,-100.00,North,358,2.0,5.0,63,0.00,,,0.00,91.000000,,2013-05-26 11:52:00,
2013-05-26 08:02:00,64.0,51.0,-100.00,North,358,2.0,5.0,63,0.00,,,0.00,91.000000,,2013-05-26 12:02:00,
2013-05-26 08:12:00,64.0,51.0,-100.00,North,358,2.0,5.0,63,0.00,,,0.00,91.000000,,2013-05-26 12:12:00,
2013-05-26 08:22:00,64.0,51.0,-100.00,North,358,2.0,5.0,63,0.00,,,0.00,91.000000,,2013-05-26 12:22:00,
2013-05-26 08:52:00,67.0,50.0,-100.00,NNE,25,3.0,7.0,54,0.00,,,0.00,157.000000,,2013-05-26 12:52:00,
2013-05-26 09:02:00,67.0,50.0,-100.00,NNE,25,3.0,7.0,54,0.00,,,0.00,157.000000,,2013-05-26 13:02:00,
2013-05-26 09:11:00,67.0,50.0,-100.00,NNE,25,3.0,7.0,54,0.00,,,0.00,157.000000,,2013-05-26 13:11:00,
2013-05-26 09:22:00,67.0,50.0,-100.00,NNE,25,3.0,7.0,54,0.00,,,0.00,157.000000,,2013-05-26 13:22:00,
2013-05-26 09:52:00,70.0,51.0,-100.00,ENE,57,4.0,8.0,51,0.00,,,0.00,294.000000,,2013-05-26 13:52:00,
2013-05-26 10:02:00,70.0,51.0,-100.00,ENE,57,4.0,8.0,51,0.00,,,0.00,294.000000,,2013-05-26 14:02:00,
2013-05-26 10:11:00,70.0,51.0,-100.00,ENE,57,4.0,8.0,51,0.00,,,0.00,294.000000,,2013-05-26 14:11:00,
2013-05-26 10:22:00,70.0,51.0,-100.00,ENE,57,4.0,8.0,51,0.00,,,0.00,294.000000,,2013-05-26 14:22:00,
2013-05-26 10:52:00,69.0,50.0,-100.00,NE,54,4.0,10.0,51,0.00,,,0.00,458.000000,,2013-05-26 14:52:00,
2013-05-26 11:02:00,69.0,50.0,-100.00,NE,54,4.0,10.0,51,0.00,,,0.00,458.000000,,2013-05-26 15:02:00,
2013-05-26 11:12:00,69.0,50.0,-100.00,NE,54,4.0,10.0,51,0.00,,,0.00,458.000000,,2013-05-26 15:12:00,
2013-05-26 11:22:00,69.0,50.0,-100.00,NE,54,4.0,10.0,51,0.00,,,0.00,458.000000,,2013-05-26 15:22:00,
2013-05-26 11:53:00,71.0,51.0,-100.00,ENE,62,6.0,11.0,49,0.00,,,0.00,701.000000,,2013-05-26 15:53:00,
2013-05-26 12:03:00,71.0,51.0,-100.00,ENE,62,6.0,11.0,49,0.00,,,0.00,701.000000,,2013-05-26 16:03:00,
2013-05-26 12:12:00,71.0,51.0,-100.00,ENE,62,6.0,11.0,49,0.00,,,0.00,701.000000,,2013-05-26 16:12:00,
2013-05-26 12:23:00,71.0,51.0,-100.00,ENE,62,6.0,11.0,49,0.00,,,0.00,701.000000,,2013-05-26 16:23:00,
2013-05-26 12:53:00,70.0,50.0,-100.00,NE,55,6.0,10.0,50,0.00,,,0.00,645.000000,,2013-05-26 16:53:00,
2013-05-26 13:02:00,70.0,50.0,-100.00,NE,55,6.0,10.0,50,0.00,,,0.00,645.000000,,2013-05-26 17:02:00,
2013-05-26 13:11:00,70.0,50.0,-100.00,NE,55,6.0,10.0,50,0.00,,,0.00,645.000000,,2013-05-26 17:11:00,
2013-05-26 13:23:00,70.0,50.0,-100.00,NE,55,6.0,10.0,50,0.00,,,0.00,645.000000,,2013-05-26 17:23:00,
2013-05-26 13:52:00,69.0,50.0,-100.00,ENE,61,5.0,10.0,50,0.00,,,0.00,588.000000,,2013-05-26 17:52:00,
2013-05-26 14:01:00,69.0,50.0,-100.00,ENE,61,5.0,10.0,50,0.00,,,0.00,588.000000,,2013-05-26 18:01:00,
2013-05-26 14:12:00,69.0,50.0,-100.00,ENE,61,5.0,10.0,50,0.00,,,0.00,588.000000,,2013-05-26 18:12:00,
2013-05-26 14:22:00,69.0,50.0,-100.00,ENE,61,5.0,10.0,50,0.00,,,0.00,588.000000,,2013-05-26 18:22:00,
2013-05-26 14:52:00,70.0,50.0,-100.00,ENE,59,5.0,11.0,49,0.00,,,0.00,787.000000,,2013-05-26 18:52:00,
2013-05-26 15:01:00,70.0,50.0,-100.00,ENE,59,5.0,11.0,49,0.00,,,0.00,787.000000,,2013-05-26 19:01:00,
2013-05-26 15:11:00,70.0,50.0,-100.00,ENE,59,5.0,11.0,49,0.00,,,0.00,787.000000,,2013-05-26 19:11:00,
2013-05-26 15:22:00,70.0,50.0,-100.00,ENE,59,5.0,11.0,49,0.00,,,0.00,787.000000,,2013-05-26 19:22:00,
2013-05-26 15:52:00,70.0,50.0,-100.00,ENE,64,5.0,10.0,49,0.00,,,0.00,324.000000,,2013-05-26 19:52:00,
2013-05-26 16:02:00,70.0,50.0,-100.00,ENE,64,5.0,10.0,49,0.00,,,0.00,324.000000,,2013-05-26 20:02:00,
2013-05-26 16:11:00,70.0,50.0,-100.00,ENE,64,5.0,10.0,49,0.00,,,0.00,324.000000,,2013-05-26 20:11:00,
2013-05-26 16:22:00,70.0,50.0,-100.00,ENE,64,5.0,10.0,49,0.00,,,0.00,324.000000,,2013-05-26 20:22:00,
2013-05-26 16:53:00,70.0,50.0,-100.00,ENE,65,5.0,9.0,49,0.00,,,0.00,808.000000,,2013-05-26 20:53:00,
2013-05-26 17:02:00,70.0,50.0,-100.00,ENE,65,5.0,9.0,49,0.00,,,0.00,808.000000,,2013-05-26 21:02:00,
2013-05-26 17:12:00,70.0,50.0,-100.00,ENE,65,5.0,9.0,49,0.00,,,0.00,808.000000,,2013-05-26 21:12:00,
2013-05-26 17:22:00,70.0,50.0,-100.00,ENE,65,5.0,9.0,49,0.00,,,0.00,808.000000,,2013-05-26 21:22:00,
2013-05-26 17:53:00,70.0,50.0,-100.00,ENE,70,6.0,9.0,50,0.00,,,0.00,314.000000,,2013-05-26 21:53:00,
2013-05-26 18:03:00,70.0,50.0,-100.00,ENE,70,6.0,9.0,50,0.00,,,0.00,314.000000,,2013-05-26 22:03:00,
2013-05-26 18:12:00,70.0,50.0,-100.00,ENE,70,6.0,9.0,50,0.00,,,0.00,314.000000,,2013-05-26 22:12:00,
2013-05-26 18:23:00,70.0,50.0,-100.00,ENE,70,6.0,9.0,50,0.00,,,0.00,314.000000,,2013-05-26 22:23:00,
2013-05-26 18:53:00,70.0,50.0,-100.00,ENE,78,5.0,8.0,49,0.00,,,0.00,297.000000,,2013-05-26 22:53:00,
2013-05-26 19:02:00,70.0,50.0,-100.00,ENE,78,5.0,8.0,49,0.00,,,0.00,297.000000,,2013-05-26 23:02:00,
2013-05-26 19:12:00,70.0,50.0,-100.00,ENE,78,5.0,8.0,49,0.00,,,0.00,297.000000,,2013-05-26 23:12:00,
2013-05-26 19:22:00,70.0,50.0,-100.00,ENE,78,5.0,8.0,49,0.00,,,0.00,297.000000,,2013-05-26 23:22:00,
2013-05-26 19:52:00,68.0,49.0,-100.00,ENE,75,2.0,7.0,50,0.00,,,0.00,87.000000,,2013-05-26 23:52:00,
2013-05-26 20:02:00,68.0,49.0,-100.00,ENE,75,2.0,7.0,50,0.00,,,0.00,87.000000,,2013-05-27 00:02:00,
2013-05-26 20:11:00,68.0,49.0,-100.00,ENE,75,2.0,7.0,50,0.00,,,0.00,87.000000,,2013-05-27 00:11:00,
2013-05-26 20:22:00,68.0,49.0,-100.00,ENE,75,2.0,7.0,50,0.00,,,0.00,87.000000,,2013-05-27 00:22:00,
2013-05-26 20:52:00,60.0,47.0,-100.00,SW,221,2.0,3.0,62,0.00,,,0.00,8.000000,,2013-05-27 00:52:00,
2013-05-26 21:01:00,60.0,47.0,-100.00,SW,221,2.0,3.0,62,0.00,,,0.00,8.000000,,2013-05-27 01:01:00,
2013-05-26 21:11:00,60.0,47.0,-100.00,SW,221,2.0,3.0,62,0.00,,,0.00,8.000000,,2013-05-27 01:11:00,
2013-05-26 21:22:00,60.0,47.0,-100.00,SW,221,2.0,3.0,62,0.00,,,0.00,8.000000,,2013-05-27 01:22:00,
2013-05-26 21:52:00,58.0,46.0,-100.00,WSW,239,2.0,3.0,64,0.00,,,0.00,0.000000,,2013-05-27 01:52:00,
2013-05-26 22:02:00,58.0,46.0,-100.00,WSW,239,2.0,3.0,64,0.00,,,0.00,0.000000,,2013-05-27 02:02:00,
2013-05-26 22:11:00,58.0,46.0,-100.00,WSW,239,2.0,3.0,64,0.00,,,0.00,0.000000,,2013-05-27 02:11:00,
2013-05-26 22:22:00,58.0,46.0,-100.00,WSW,239,2.0,3.0,64,0.00,,,0.00,0.000000,,2013-05-27 02:22:00,
2013-05-26 22:52:00,57.0,45.0,-100.00,SW,232,2.0,3.0,64,0.00,,,0.00,0.000000,,2013-05-27 02:52:00,
2013-05-26 23:02:00,57.0,45.0,-100.00,SW,232,2.0,3.0,64,0.00,,,0.00,0.000000,,2013-05-27 03:02:00,
2013-05-26 23:11:00,57.0,45.0,-100.00,SW,232,2.0,3.0,64,0.00,,,0.00,0.000000,,2013-05-27 03:11:00,
2013-05-26 23:21:00,57.0,45.0,-100.00,SW,232,2.0,3.0,64,0.00,,,0.00,0.000000,,2013-05-27 03:21:00,
2013-05-26 23:53:00,57.0,47.0,-100.00,SW,234,2.0,3.0,68,0.00,,,0.00,0.000000,,2013-05-27 03:53:00,